sensor_id;sensor_type;location;lat;lon;timestamp;pressure;altitude;pressure_sealevel;temperature;humidity
29505;BME280;16452;54.174;12.092;2022-12-13T00:01:47;101107.16;;;1.85;87.79
29505;BME280;16452;54.174;12.092;2022-12-13T00:04:15;101120.06;;;1.76;89.12
29505;BME280;16452;54.174;12.092;2022-12-13T00:06:41;101108.00;;;1.85;89.96
29505;BME280;16452;54.174;12.092;2022-12-13T00:09:07;101107.94;;;1.90;88.98
29505;BME280;16452;54.174;12.092;2022-12-13T00:11:33;101112.44;;;1.70;89.97
29505;BME280;16452;54.174;12.092;2022-12-13T00:14:00;101109.84;;;1.73;89.33
29505;BME280;16452;54.174;12.092;2022-12-13T00:16:26;101106.47;;;1.68;88.86
29505;BME280;16452;54.174;12.092;2022-12-13T00:18:57;101097.75;;;1.82;89.92
29505;BME280;16452;54.174;12.092;2022-12-13T00:21:27;101109.91;;;1.67;91.65
29505;BME280;16452;54.174;12.092;2022-12-13T00:23:53;101104.84;;;1.57;91.99
29505;BME280;16452;54.174;12.092;2022-12-13T00:26:24;101106.47;;;1.68;91.84
29505;BME280;16452;54.174;12.092;2022-12-13T00:28:51;101109.06;;;1.64;92.35
29505;BME280;16452;54.174;12.092;2022-12-13T00:31:20;101097.13;;;1.62;93.84
29505;BME280;16452;54.174;12.092;2022-12-13T00:33:46;101112.47;;;1.68;93.92
29505;BME280;16452;54.174;12.092;2022-12-13T00:36:12;101103.19;;;1.53;93.29
29505;BME280;16452;54.174;12.092;2022-12-13T00:38:38;101097.19;;;1.56;92.25
29505;BME280;16452;54.174;12.092;2022-12-13T00:41:17;101105.63;;;1.67;93.08
29505;BME280;16452;54.174;12.092;2022-12-13T00:43:43;101099.69;;;1.60;92.71
29505;BME280;16452;54.174;12.092;2022-12-13T00:46:15;101104.91;;;1.53;92.75
29505;BME280;16452;54.174;12.092;2022-12-13T00:48:47;101100.72;;;1.43;93.40
29505;BME280;16452;54.174;12.092;2022-12-13T00:51:13;101103.41;;;1.31;94.69
29505;BME280;16452;54.174;12.092;2022-12-13T00:53:38;101097.38;;;1.36;92.62
29505;BME280;16452;54.174;12.092;2022-12-13T00:56:11;101105.81;;;1.49;94.03
29505;BME280;16452;54.174;12.092;2022-12-13T00:58:37;101103.47;;;1.23;96.47
29505;BME280;16452;54.174;12.092;2022-12-13T01:01:06;101101.75;;;1.25;97.04
29505;BME280;16452;54.174;12.092;2022-12-13T01:03:32;101107.81;;;1.16;95.27
29505;BME280;16452;54.174;12.092;2022-12-13T01:05:58;101103.56;;;1.11;97.08
29505;BME280;16452;54.174;12.092;2022-12-13T01:08:25;101111.19;;;1.18;97.30
29505;BME280;16452;54.174;12.092;2022-12-13T01:10:52;101106.13;;;1.11;95.65
29505;BME280;16452;54.174;12.092;2022-12-13T01:13:18;101112.09;;;1.11;97.26
29505;BME280;16452;54.174;12.092;2022-12-13T01:15:46;101104.47;;;1.05;95.64
29505;BME280;16452;54.174;12.092;2022-12-13T01:18:13;101107.16;;;0.93;95.58
29505;BME280;16452;54.174;12.092;2022-12-13T01:20:55;101108.81;;;0.94;97.52
29505;BME280;16452;54.174;12.092;2022-12-13T01:23:21;101113.22;;;0.78;96.69
29505;BME280;16452;54.174;12.092;2022-12-13T01:25:46;101108.06;;;0.83;93.86
29505;BME280;16452;54.174;12.092;2022-12-13T01:28:12;101111.38;;;0.94;92.15
29505;BME280;16452;54.174;12.092;2022-12-13T01:30:38;101112.31;;;0.86;90.63
29505;BME280;16452;54.174;12.092;2022-12-13T01:33:03;101109.75;;;0.87;88.37
29505;BME280;16452;54.174;12.092;2022-12-13T01:35:29;101110.63;;;0.85;89.05
29505;BME280;16452;54.174;12.092;2022-12-13T01:37:58;101107.16;;;0.89;89.43
29505;BME280;16452;54.174;12.092;2022-12-13T01:40:23;101113.19;;;0.83;89.36
29505;BME280;16452;54.174;12.092;2022-12-13T01:42:49;101114.03;;;0.82;89.30
29505;BME280;16452;54.174;12.092;2022-12-13T01:45:27;101107.97;;;0.97;86.39
29505;BME280;16452;54.174;12.092;2022-12-13T01:48:00;101105.38;;;1.00;84.12
29505;BME280;16452;54.174;12.092;2022-12-13T01:50:35;101105.34;;;1.01;84.83
29505;BME280;16452;54.174;12.092;2022-12-13T01:53:07;101105.25;;;1.13;83.88
29505;BME280;16452;54.174;12.092;2022-12-13T01:55:36;101105.31;;;1.10;81.32
29505;BME280;16452;54.174;12.092;2022-12-13T01:58:05;101097.72;;;0.97;80.08
29505;BME280;16452;54.174;12.092;2022-12-13T02:00:33;101091.69;;;1.04;78.64
29505;BME280;16452;54.174;12.092;2022-12-13T02:03:00;101089.16;;;0.96;80.05
29505;BME280;16452;54.174;12.092;2022-12-13T02:05:44;101089.91;;;1.10;79.11
29505;BME280;16452;54.174;12.092;2022-12-13T02:08:14;101082.22;;;1.09;78.93
29505;BME280;16452;54.174;12.092;2022-12-13T02:10:41;101090.81;;;1.03;80.74
29505;BME280;16452;54.174;12.092;2022-12-13T02:13:08;101093.34;;;1.09;77.46
29505;BME280;16452;54.174;12.092;2022-12-13T02:28:31;101084.69;;;1.19;77.36
29505;BME280;16452;54.174;12.092;2022-12-13T02:31:13;101086.34;;;1.25;75.56
29505;BME280;16452;54.174;12.092;2022-12-13T02:33:54;101090.69;;;1.20;79.56
29505;BME280;16452;54.174;12.092;2022-12-13T02:36:45;101084.78;;;1.06;75.75
29505;BME280;16452;54.174;12.092;2022-12-13T02:39:22;101086.44;;;1.14;77.68
29505;BME280;16452;54.174;12.092;2022-12-13T02:41:56;101082.97;;;1.18;75.84
29505;BME280;16452;54.174;12.092;2022-12-13T02:44:33;101083.88;;;1.16;73.82
29505;BME280;16452;54.174;12.092;2022-12-13T02:47:18;101080.41;;;1.17;76.90
29505;BME280;16452;54.174;12.092;2022-12-13T02:49:50;101089.78;;;1.22;76.60
29505;BME280;16452;54.174;12.092;2022-12-13T02:52:20;101097.47;;;1.22;76.97
29505;BME280;16452;54.174;12.092;2022-12-13T02:54:47;101087.19;;;1.27;77.17
29505;BME280;16452;54.174;12.092;2022-12-13T02:57:34;101082.13;;;1.18;75.68
29505;BME280;16452;54.174;12.092;2022-12-13T03:00:06;101090.78;;;1.08;77.59
29505;BME280;16452;54.174;12.092;2022-12-13T03:05:39;101091.56;;;1.14;77.53
29505;BME280;16452;54.174;12.092;2022-12-13T03:11:19;101079.50;;;1.24;76.61
29505;BME280;16452;54.174;12.092;2022-12-13T03:13:59;101077.78;;;1.26;76.30
29505;BME280;16452;54.174;12.092;2022-12-13T03:16:34;101080.34;;;1.28;77.42
29505;BME280;16452;54.174;12.092;2022-12-13T03:19:06;101078.66;;;1.25;76.83
29505;BME280;16452;54.174;12.092;2022-12-13T03:21:45;101082.03;;;1.32;74.80
29505;BME280;16452;54.174;12.092;2022-12-13T03:24:12;101083.72;;;1.31;75.55
29505;BME280;16452;54.174;12.092;2022-12-13T03:26:39;101081.97;;;1.35;76.23
29505;BME280;16452;54.174;12.092;2022-12-13T03:29:06;101077.75;;;1.32;75.18
29505;BME280;16452;54.174;12.092;2022-12-13T03:31:32;101077.72;;;1.34;77.51
29505;BME280;16452;54.174;12.092;2022-12-13T03:33:58;101075.13;;;1.35;76.94
29505;BME280;16452;54.174;12.092;2022-12-13T03:36:24;101085.31;;;1.43;75.75
29505;BME280;16452;54.174;12.092;2022-12-13T03:38:52;101087.03;;;1.44;75.70
29505;BME280;16452;54.174;12.092;2022-12-13T03:41:21;101072.56;;;1.37;76.28
29505;BME280;16452;54.174;12.092;2022-12-13T03:43:48;101079.38;;;1.39;74.80
29505;BME280;16452;54.174;12.092;2022-12-13T03:46:14;101082.03;;;1.32;73.58
29505;BME280;16452;54.174;12.092;2022-12-13T03:48:40;101076.03;;;1.31;74.79
29505;BME280;16452;54.174;12.092;2022-12-13T03:51:06;101070.84;;;1.34;75.62
29505;BME280;16452;54.174;12.092;2022-12-13T03:53:32;101070.84;;;1.39;74.99
29505;BME280;16452;54.174;12.092;2022-12-13T03:55:57;101069.94;;;1.43;74.36
29505;BME280;16452;54.174;12.092;2022-12-13T03:58:24;101067.34;;;1.44;75.59
29505;BME280;16452;54.174;12.092;2022-12-13T04:00:50;101064.78;;;1.43;75.84
29505;BME280;16452;54.174;12.092;2022-12-13T04:03:16;101052.81;;;1.42;73.88
29505;BME280;16452;54.174;12.092;2022-12-13T04:05:42;101053.72;;;1.38;74.65
29505;BME280;16452;54.174;12.092;2022-12-13T04:08:08;101054.53;;;1.41;73.71
29505;BME280;16452;54.174;12.092;2022-12-13T04:10:34;101053.78;;;1.33;75.19
29505;BME280;16452;54.174;12.092;2022-12-13T04:13:00;101049.47;;;1.37;75.38
29505;BME280;16452;54.174;12.092;2022-12-13T04:15:55;101058.03;;;1.34;77.43
29505;BME280;16452;54.174;12.092;2022-12-13T04:18:21;101051.16;;;1.38;77.29
29505;BME280;16452;54.174;12.092;2022-12-13T04:20:46;101058.81;;;1.44;74.79
29505;BME280;16452;54.174;12.092;2022-12-13T04:23:13;101064.75;;;1.49;74.84
29505;BME280;16452;54.174;12.092;2022-12-13T04:25:40;101048.47;;;1.50;74.81
29505;BME280;16452;54.174;12.092;2022-12-13T04:28:06;101048.41;;;1.54;74.17
29505;BME280;16452;54.174;12.092;2022-12-13T04:30:33;101043.28;;;1.53;73.15
29505;BME280;16452;54.174;12.092;2022-12-13T04:32:59;101049.34;;;1.50;74.25
29505;BME280;16452;54.174;12.092;2022-12-13T04:35:25;101048.38;;;1.59;74.61
29505;BME280;16452;54.174;12.092;2022-12-13T04:37:51;101051.84;;;1.56;74.21
29505;BME280;16452;54.174;12.092;2022-12-13T04:40:17;101050.22;;;1.46;75.21
29505;BME280;16452;54.174;12.092;2022-12-13T04:42:43;101051.00;;;1.53;72.60
29505;BME280;16452;54.174;12.092;2022-12-13T04:45:16;101041.44;;;1.65;74.49
29505;BME280;16452;54.174;12.092;2022-12-13T04:47:43;101044.13;;;1.55;73.36
29505;BME280;16452;54.174;12.092;2022-12-13T04:50:10;101045.19;;;1.39;74.23
29505;BME280;16452;54.174;12.092;2022-12-13T04:52:35;101046.72;;;1.55;73.27
29505;BME280;16452;54.174;12.092;2022-12-13T04:55:02;101043.16;;;1.68;72.64
29505;BME280;16452;54.174;12.092;2022-12-13T04:57:28;101041.50;;;1.62;75.36
29505;BME280;16452;54.174;12.092;2022-12-13T04:59:54;101043.28;;;1.56;75.59
29505;BME280;16452;54.174;12.092;2022-12-13T05:02:19;101037.22;;;1.61;74.38
29505;BME280;16452;54.174;12.092;2022-12-13T05:04:45;101035.44;;;1.68;74.52
29505;BME280;16452;54.174;12.092;2022-12-13T05:07:11;101039.63;;;1.75;73.80
29505;BME280;16452;54.174;12.092;2022-12-13T05:09:36;101031.91;;;1.75;74.63
29505;BME280;16452;54.174;12.092;2022-12-13T05:12:02;101037.31;;;1.54;74.80
29505;BME280;16452;54.174;12.092;2022-12-13T05:14:32;101025.81;;;1.85;74.83
29505;BME280;16452;54.174;12.092;2022-12-13T05:16:59;101020.84;;;1.70;75.68
29505;BME280;16452;54.174;12.092;2022-12-13T05:19:25;101022.47;;;1.79;76.14
29505;BME280;16452;54.174;12.092;2022-12-13T05:21:51;101019.97;;;1.74;76.00
29505;BME280;16452;54.174;12.092;2022-12-13T05:24:16;101021.88;;;1.57;76.34
29505;BME280;16452;54.174;12.092;2022-12-13T05:26:42;101019.06;;;1.75;76.09
29505;BME280;16452;54.174;12.092;2022-12-13T05:29:08;101016.56;;;1.69;77.44
29505;BME280;16452;54.174;12.092;2022-12-13T05:31:34;101016.50;;;1.75;78.02
29505;BME280;16452;54.174;12.092;2022-12-13T05:34:00;101018.06;;;1.90;76.23
29505;BME280;16452;54.174;12.092;2022-12-13T05:36:26;101014.84;;;1.73;74.37
29505;BME280;16452;54.174;12.092;2022-12-13T05:38:52;101012.13;;;1.83;74.63
29505;BME280;16452;54.174;12.092;2022-12-13T05:41:21;101010.38;;;1.87;75.31
29505;BME280;16452;54.174;12.092;2022-12-13T05:43:49;101006.16;;;1.83;76.27
29505;BME280;16452;54.174;12.092;2022-12-13T05:46:15;101016.50;;;1.77;73.75
29505;BME280;16452;54.174;12.092;2022-12-13T05:48:41;101021.31;;;2.02;74.14
29505;BME280;16452;54.174;12.092;2022-12-13T05:51:07;101009.56;;;1.85;74.51
29505;BME280;16452;54.174;12.092;2022-12-13T05:53:33;101020.69;;;1.85;74.67
29505;BME280;16452;54.174;12.092;2022-12-13T05:56:00;101018.94;;;1.87;73.31
29505;BME280;16452;54.174;12.092;2022-12-13T05:58:26;101021.38;;;1.98;71.69
29505;BME280;16452;54.174;12.092;2022-12-13T06:00:52;101025.00;;;1.82;73.08
29505;BME280;16452;54.174;12.092;2022-12-13T06:03:18;101025.03;;;1.80;72.96
29505;BME280;16452;54.174;12.092;2022-12-13T06:05:44;101025.06;;;1.76;72.36
29505;BME280;16452;54.174;12.092;2022-12-13T06:08:10;101014.56;;;1.94;71.17
29505;BME280;16452;54.174;12.092;2022-12-13T06:10:37;101022.19;;;1.98;71.78
29505;BME280;16452;54.174;12.092;2022-12-13T06:13:04;101014.69;;;1.86;74.57
29505;BME280;16452;54.174;12.092;2022-12-13T06:15:30;101023.97;;;1.93;73.59
29505;BME280;16452;54.174;12.092;2022-12-13T06:17:58;101022.19;;;2.01;74.26
29505;BME280;16452;54.174;12.092;2022-12-13T06:20:24;101019.63;;;1.98;73.83
29505;BME280;16452;54.174;12.092;2022-12-13T06:22:51;101026.38;;;2.07;73.90
29505;BME280;16452;54.174;12.092;2022-12-13T06:25:18;101024.50;;;2.20;75.47
29505;BME280;16452;54.174;12.092;2022-12-13T06:27:43;101022.88;;;2.13;74.26
29505;BME280;16452;54.174;12.092;2022-12-13T06:30:10;101015.16;;;2.14;73.90
29505;BME280;16452;54.174;12.092;2022-12-13T06:32:36;101022.25;;;1.95;74.61
29505;BME280;16452;54.174;12.092;2022-12-13T06:35:02;101018.91;;;1.92;75.16
29505;BME280;16452;54.174;12.092;2022-12-13T06:37:27;101013.91;;;1.80;73.28
29505;BME280;16452;54.174;12.092;2022-12-13T06:39:53;101020.78;;;1.76;75.33
29505;BME280;16452;54.174;12.092;2022-12-13T06:42:19;101023.19;;;1.88;76.00
29505;BME280;16452;54.174;12.092;2022-12-13T06:44:44;101020.00;;;1.71;75.57
29505;BME280;16452;54.174;12.092;2022-12-13T06:47:11;101022.34;;;1.89;74.61
29505;BME280;16452;54.174;12.092;2022-12-13T06:49:37;101027.53;;;1.86;74.26
29505;BME280;16452;54.174;12.092;2022-12-13T06:52:03;101031.84;;;1.83;77.06
29505;BME280;16452;54.174;12.092;2022-12-13T06:54:29;101032.66;;;1.86;76.80
29505;BME280;16452;54.174;12.092;2022-12-13T06:56:55;101032.66;;;1.86;76.09
29505;BME280;16452;54.174;12.092;2022-12-13T06:59:20;101042.09;;;1.83;75.05
29505;BME280;16452;54.174;12.092;2022-12-13T07:01:46;101034.31;;;1.89;76.18
29505;BME280;16452;54.174;12.092;2022-12-13T07:04:12;101040.38;;;1.86;75.76
29505;BME280;16452;54.174;12.092;2022-12-13T07:06:38;101037.03;;;1.77;76.88
29505;BME280;16452;54.174;12.092;2022-12-13T07:09:04;101040.44;;;1.79;75.94
29505;BME280;16452;54.174;12.092;2022-12-13T07:11:31;101040.53;;;1.70;77.78
29505;BME280;16452;54.174;12.092;2022-12-13T07:13:58;101036.09;;;1.84;78.70
29505;BME280;16452;54.174;12.092;2022-12-13T07:16:26;101047.44;;;1.68;77.90
29505;BME280;16452;54.174;12.092;2022-12-13T07:18:59;101042.13;;;1.81;77.36
29505;BME280;16452;54.174;12.092;2022-12-13T07:21:26;101047.38;;;1.72;77.05
29505;BME280;16452;54.174;12.092;2022-12-13T07:23:52;101049.88;;;1.77;76.36
29505;BME280;16452;54.174;12.092;2022-12-13T07:26:22;101054.00;;;1.91;76.11
29505;BME280;16452;54.174;12.092;2022-12-13T07:28:48;101053.34;;;1.73;76.10
29505;BME280;16452;54.174;12.092;2022-12-13T07:31:16;101046.25;;;1.93;75.79
29505;BME280;16452;54.174;12.092;2022-12-13T07:33:43;101049.09;;;1.70;76.97
29505;BME280;16452;54.174;12.092;2022-12-13T07:36:17;101042.25;;;1.71;77.57
29505;BME280;16452;54.174;12.092;2022-12-13T07:38:53;101050.66;;;1.82;76.01
29505;BME280;16452;54.174;12.092;2022-12-13T07:41:20;101054.88;;;1.89;75.54
29505;BME280;16452;54.174;12.092;2022-12-13T07:43:46;101051.78;;;1.59;76.87
29505;BME280;16452;54.174;12.092;2022-12-13T07:46:12;101054.19;;;1.75;77.09
29505;BME280;16452;54.174;12.092;2022-12-13T07:48:39;101055.78;;;1.85;76.33
29505;BME280;16452;54.174;12.092;2022-12-13T07:51:08;101045.31;;;2.00;76.00
29505;BME280;16452;54.174;12.092;2022-12-13T07:53:37;101052.94;;;2.04;75.47
29505;BME280;16452;54.174;12.092;2022-12-13T07:56:04;101059.91;;;1.96;76.83
29505;BME280;16452;54.174;12.092;2022-12-13T07:58:31;101055.94;;;2.38;77.70
29505;BME280;16452;54.174;12.092;2022-12-13T08:01:05;101052.09;;;2.67;75.60
29505;BME280;16452;54.174;12.092;2022-12-13T08:03:32;101061.13;;;2.34;74.77
29505;BME280;16452;54.174;12.092;2022-12-13T08:06:05;101062.03;;;2.33;74.01
29505;BME280;16452;54.174;12.092;2022-12-13T08:08:31;101054.97;;;2.45;73.77
29505;BME280;16452;54.174;12.092;2022-12-13T08:11:07;101059.06;;;2.60;74.80
29505;BME280;16452;54.174;12.092;2022-12-13T08:13:34;101060.53;;;2.75;76.27
29505;BME280;16452;54.174;12.092;2022-12-13T08:16:02;101061.94;;;2.96;76.54
29505;BME280;16452;54.174;12.092;2022-12-13T08:18:29;101065.03;;;2.61;74.86
29505;BME280;16452;54.174;12.092;2022-12-13T08:21:05;101060.72;;;2.63;73.40
29505;BME280;16452;54.174;12.092;2022-12-13T08:23:33;101060.69;;;2.66;73.97
29505;BME280;16452;54.174;12.092;2022-12-13T08:26:00;101060.19;;;2.41;75.45
29505;BME280;16452;54.174;12.092;2022-12-13T08:28:27;101060.16;;;2.44;74.99
29505;BME280;16452;54.174;12.092;2022-12-13T08:30:54;101061.28;;;2.22;74.98
29505;BME280;16452;54.174;12.092;2022-12-13T08:33:20;101069.59;;;2.43;74.91
29505;BME280;16452;54.174;12.092;2022-12-13T08:35:47;101060.94;;;2.47;73.73
29505;BME280;16452;54.174;12.092;2022-12-13T08:38:13;101059.06;;;2.60;74.03
29505;BME280;16452;54.174;12.092;2022-12-13T08:40:39;101059.84;;;2.62;74.43
29505;BME280;16452;54.174;12.092;2022-12-13T08:43:05;101060.88;;;2.52;75.04
29505;BME280;16452;54.174;12.092;2022-12-13T08:45:31;101058.13;;;2.64;74.15
29505;BME280;16452;54.174;12.092;2022-12-13T08:48:00;101058.28;;;2.55;76.36
29505;BME280;16452;54.174;12.092;2022-12-13T08:50:27;101065.13;;;2.55;75.64
29505;BME280;16452;54.174;12.092;2022-12-13T08:52:53;101073.56;;;2.64;74.60
29505;BME280;16452;54.174;12.092;2022-12-13T08:55:19;101070.44;;;2.42;74.79
29505;BME280;16452;54.174;12.092;2022-12-13T08:57:45;101068.47;;;2.61;75.01
29505;BME280;16452;54.174;12.092;2022-12-13T09:00:19;101072.78;;;2.58;74.85
29505;BME280;16452;54.174;12.092;2022-12-13T09:02:45;101075.25;;;2.67;73.85
29505;BME280;16452;54.174;12.092;2022-12-13T09:05:11;101076.91;;;2.69;75.10
29505;BME280;16452;54.174;12.092;2022-12-13T09:07:37;101074.16;;;2.81;76.13
29505;BME280;16452;54.174;12.092;2022-12-13T09:10:09;101073.13;;;2.92;75.47
29505;BME280;16452;54.174;12.092;2022-12-13T09:12:35;101072.50;;;2.77;75.82
29505;BME280;16452;54.174;12.092;2022-12-13T09:15:02;101074.13;;;2.84;75.34
29505;BME280;16452;54.174;12.092;2022-12-13T09:17:31;101080.91;;;2.87;75.53
29505;BME280;16452;54.174;12.092;2022-12-13T09:19:57;101075.56;;;2.44;76.56
29505;BME280;16452;54.174;12.092;2022-12-13T09:22:23;101075.50;;;2.50;77.21
29505;BME280;16452;54.174;12.092;2022-12-13T09:24:49;101076.38;;;2.46;77.33
29505;BME280;16452;54.174;12.092;2022-12-13T09:27:14;101077.94;;;2.58;77.69
29505;BME280;16452;54.174;12.092;2022-12-13T09:29:40;101075.94;;;2.76;76.77
29505;BME280;16452;54.174;12.092;2022-12-13T09:32:06;101087.84;;;2.82;78.42
29505;BME280;16452;54.174;12.092;2022-12-13T09:34:32;101081.94;;;2.78;77.41
29505;BME280;16452;54.174;12.092;2022-12-13T09:36:58;101080.97;;;2.84;76.60
29505;BME280;16452;54.174;12.092;2022-12-13T09:39:24;101073.19;;;2.87;78.07
29505;BME280;16452;54.174;12.092;2022-12-13T09:41:54;101073.09;;;2.95;78.79
29505;BME280;16452;54.174;12.092;2022-12-13T09:44:28;101080.72;;;3.01;79.56
29505;BME280;16452;54.174;12.092;2022-12-13T09:46:54;101072.72;;;3.17;78.70
29505;BME280;16452;54.174;12.092;2022-12-13T09:49:39;101068.59;;;3.07;80.39
29505;BME280;16452;54.174;12.092;2022-12-13T09:52:13;101086.22;;;2.76;82.16
29505;BME280;16452;54.174;12.092;2022-12-13T09:54:40;101076.72;;;2.81;82.70
29505;BME280;16452;54.174;12.092;2022-12-13T09:57:28;101078.72;;;2.63;84.17
29505;BME280;16452;54.174;12.092;2022-12-13T09:59:55;101076.81;;;2.75;84.70
29505;BME280;16452;54.174;12.092;2022-12-13T10:02:29;101073.72;;;2.54;87.40
29505;BME280;16452;54.174;12.092;2022-12-13T10:07:57;101072.38;;;3.37;86.05
29505;BME280;16452;54.174;12.092;2022-12-13T10:10:24;101070.16;;;3.63;85.58
29505;BME280;16452;54.174;12.092;2022-12-13T10:13:19;101073.28;;;3.79;84.27
29505;BME280;16452;54.174;12.092;2022-12-13T10:16:03;101072.88;;;3.56;84.53
29505;BME280;16452;54.174;12.092;2022-12-13T10:18:40;101075.34;;;3.62;85.74
29505;BME280;16452;54.174;12.092;2022-12-13T10:21:26;101075.94;;;3.75;86.83
29505;BME280;16452;54.174;12.092;2022-12-13T10:23:53;101070.34;;;3.97;86.47
29505;BME280;16452;54.174;12.092;2022-12-13T10:26:19;101070.91;;;3.70;86.02
29505;BME280;16452;54.174;12.092;2022-12-13T10:28:45;101074.78;;;2.96;89.49
29505;BME280;16452;54.174;12.092;2022-12-13T10:31:18;101076.69;;;2.84;90.71
29505;BME280;16452;54.174;12.092;2022-12-13T10:33:53;101075.84;;;2.82;92.42
29505;BME280;16452;54.174;12.092;2022-12-13T10:36:35;101070.44;;;2.99;92.51
29505;BME280;16452;54.174;12.092;2022-12-13T10:39:03;101075.72;;;3.41;91.74
29505;BME280;16452;54.174;12.092;2022-12-13T10:41:37;101068.31;;;3.70;91.37
29505;BME280;16452;54.174;12.092;2022-12-13T10:44:16;101066.75;;;3.61;89.75
29505;BME280;16452;54.174;12.092;2022-12-13T10:49:18;101059.75;;;2.70;92.29
29505;BME280;16452;54.174;12.092;2022-12-13T10:51:46;101064.31;;;2.51;94.60
29505;BME280;16452;54.174;12.092;2022-12-13T10:54:28;101064.50;;;2.96;93.31
29505;BME280;16452;54.174;12.092;2022-12-13T10:56:56;101059.44;;;2.91;93.42
29505;BME280;16452;54.174;12.092;2022-12-13T10:59:33;101050.38;;;2.67;95.07
29505;BME280;16452;54.174;12.092;2022-12-13T11:02:01;101043.81;;;2.48;96.18
29505;BME280;16452;54.174;12.092;2022-12-13T11:04:47;101051.09;;;2.74;95.83
29505;BME280;16452;54.174;12.092;2022-12-13T11:07:30;101043.66;;;2.57;95.28
29505;BME280;16452;54.174;12.092;2022-12-13T11:09:58;101041.00;;;2.63;95.69
29505;BME280;16452;54.174;12.092;2022-12-13T11:12:39;101037.97;;;2.37;95.93
29505;BME280;16452;54.174;12.092;2022-12-13T11:15:12;101040.47;;;2.40;95.79
29505;BME280;16452;54.174;12.092;2022-12-13T11:17:51;101036.94;;;2.50;95.83
29505;BME280;16452;54.174;12.092;2022-12-13T11:20:58;101034.81;;;2.17;97.64
29505;BME280;16452;54.174;12.092;2022-12-13T11:23:41;101031.22;;;2.30;98.49
29505;BME280;16452;54.174;12.092;2022-12-13T11:26:14;101029.41;;;2.35;99.20
29505;BME280;16452;54.174;12.092;2022-12-13T11:37:27;101029.38;;;2.38;97.71
29505;BME280;16452;54.174;12.092;2022-12-13T11:40:16;101026.50;;;2.59;96.53
29505;BME280;16452;54.174;12.092;2022-12-13T11:42:57;101027.94;;;2.75;96.06
29505;BME280;16452;54.174;12.092;2022-12-13T11:45:33;101018.22;;;2.94;95.16
29505;BME280;16452;54.174;12.092;2022-12-13T11:48:31;101015.16;;;2.71;95.71
29505;BME280;16452;54.174;12.092;2022-12-13T11:51:05;101017.47;;;2.87;95.19
29505;BME280;16452;54.174;12.092;2022-12-13T11:54:18;101012.44;;;2.80;95.18
29505;BME280;16452;54.174;12.092;2022-12-13T11:56:30;101011.28;;;2.98;94.19
29505;BME280;16452;54.174;12.092;2022-12-13T11:59:26;101008.69;;;2.98;92.51
29505;BME280;16452;54.174;12.092;2022-12-13T12:02:31;101014.69;;;3.00;91.17
29505;BME280;16452;54.174;12.092;2022-12-13T12:05:31;101003.28;;;3.14;90.15
29505;BME280;16452;54.174;12.092;2022-12-13T12:08:34;101004.94;;;3.61;90.48
29505;BME280;16452;54.174;12.092;2022-12-13T12:14:00;100995.72;;;3.93;86.04
29505;BME280;16452;54.174;12.092;2022-12-13T12:16:54;100989.47;;;3.63;85.00
29505;BME280;16452;54.174;12.092;2022-12-13T12:19:29;100993.03;;;3.56;85.65
29505;BME280;16452;54.174;12.092;2022-12-13T12:25:29;100991.44;;;3.50;86.21
29505;BME280;16452;54.174;12.092;2022-12-13T12:28:43;100990.09;;;3.31;86.49
29505;BME280;16452;54.174;12.092;2022-12-13T12:31:37;100985.69;;;3.38;86.52
29505;BME280;16452;54.174;12.092;2022-12-13T12:37:14;100995.72;;;3.04;86.16
29505;BME280;16452;54.174;12.092;2022-12-13T12:40:30;100991.09;;;3.24;86.22
29505;BME280;16452;54.174;12.092;2022-12-13T12:46:36;100994.44;;;3.27;85.66
29505;BME280;16452;54.174;12.092;2022-12-13T12:49:31;101003.00;;;3.29;84.14
29505;BME280;16452;54.174;12.092;2022-12-13T12:52:52;101001.06;;;3.41;84.39
29505;BME280;16452;54.174;12.092;2022-12-13T12:58:45;101000.22;;;2.93;84.10
29505;BME280;16452;54.174;12.092;2022-12-13T13:04:03;100995.56;;;2.62;81.72
29505;BME280;16452;54.174;12.092;2022-12-13T13:06:43;100995.75;;;2.52;83.86
29505;BME280;16452;54.174;12.092;2022-12-13T13:09:16;100997.16;;;2.72;82.98
29505;BME280;16452;54.174;12.092;2022-12-13T13:11:44;100996.69;;;2.98;82.88
29505;BME280;16452;54.174;12.092;2022-12-13T13:14:34;101003.56;;;3.44;82.76
29505;BME280;16452;54.174;12.092;2022-12-13T13:19:57;101003.41;;;3.96;80.38
29505;BME280;16452;54.174;12.092;2022-12-13T13:22:36;101000.50;;;3.69;79.38
29505;BME280;16452;54.174;12.092;2022-12-13T13:27:41;100998.47;;;2.96;82.13
29505;BME280;16452;54.174;12.092;2022-12-13T13:30:23;101002.56;;;3.06;83.34
29505;BME280;16452;54.174;12.092;2022-12-13T13:32:54;100997.81;;;3.31;82.00
29505;BME280;16452;54.174;12.092;2022-12-13T13:38:03;101001.91;;;2.95;83.81
29505;BME280;16452;54.174;12.092;2022-12-13T13:40:34;101003.81;;;2.84;84.23
29505;BME280;16452;54.174;12.092;2022-12-13T13:51:53;101005.16;;;3.51;80.79
29505;BME280;16452;54.174;12.092;2022-12-13T13:55:16;101004.22;;;2.57;83.10
29505;BME280;16452;54.174;12.092;2022-12-13T14:08:27;101002.50;;;2.57;85.03
29505;BME280;16452;54.174;12.092;2022-12-13T14:23:55;101010.22;;;2.57;83.70
29505;BME280;16452;54.174;12.092;2022-12-13T14:29:36;101007.13;;;2.38;82.08
29505;BME280;16452;54.174;12.092;2022-12-13T14:32:22;101011.16;;;2.52;82.11
29505;BME280;16452;54.174;12.092;2022-12-13T14:34:49;101009.81;;;2.28;82.18
29505;BME280;16452;54.174;12.092;2022-12-13T14:37:25;101008.31;;;2.15;82.13
29505;BME280;16452;54.174;12.092;2022-12-13T14:39:52;101011.22;;;1.87;82.39
29505;BME280;16452;54.174;12.092;2022-12-13T14:42:28;101012.81;;;1.97;82.38
29505;BME280;16452;54.174;12.092;2022-12-13T14:45:11;101002.44;;;2.05;82.07
29505;BME280;16452;54.174;12.092;2022-12-13T14:47:40;101012.44;;;2.25;82.39